AFE weather

Kake Airport
Kake, Alaska, United States

Public forecast

Using degrees Fahrenheit for public forecast. Weather courtesy of forecast.io.

METAR (pilot weather report)

Retrieved 2019/09/23 00:56 UTC (34 minutes ago):

PAFE 230056Z AUTO 00000KT 10SM BKN048 OVC065 13/07 A2985 RMK AO2 SLP122 T01280072

TAF (pilot weather forecast)

Forecast is more than 12 hours old.

Closest forecast is Petersburg James A Johnson Airport, 33.1 nm (61.3 km) ESE. Retrieved 2019/09/22 00:22 UTC (1 day ago):

TAF PAPG 222320Z 2300/2324 07005KT P6SM VCSH FEW015 BKN035 OVC050 TEMPO 2300/2304 5SM SHRA BR BKN025 FM230900 14006KT 6SM -RA OVC050 FM231600 11008G14KT 5SM -RA BKN025 OVC040 WS020/14035KT TEMPO 2316/2320 2SM -RA BR OVC015 FM232000 10008KT 5SM -RA OVC025 AMD NOT SKED